Time;durP1;ratioP1;P1;durP2;ratioP2;P2;SDS_P1;SDS_P2;PMS_P1;PMS_P2;Temp;Humidity;BMP_temperature;BMP_pressure;BME280_temperature;BME280_humidity;BME280_pressure;Samples;Min_cycle;Max_cycle;Signal;HPM_P1;HPM_P2
2021/12/25 00:02:47;;;;;;;1.45;0.30;;;12.80;80.20;;;;;;10494991;28;20052;-74
2021/12/25 00:07:49;;;;;;;1.05;0.45;;;12.80;80.10;;;;;;10494935;28;20052;-75
2021/12/25 00:12:53;;;;;;;1.15;0.40;;;12.80;80.10;;;;;;10499598;28;20067;-74
2021/12/25 00:17:54;;;;;;;0.60;0.28;;;12.80;79.90;;;;;;10500307;28;20132;-74
2021/12/25 00:22:56;;;;;;;0.70;0.25;;;12.80;79.90;;;;;;10500005;28;20048;-75
2021/12/25 00:28:03;;;;;;;0.68;0.30;;;12.80;79.80;;;;;;10500142;28;20048;-75
2021/12/25 00:33:18;;;;;;;1.13;0.32;;;12.80;79.80;;;;;;10499524;28;20403;-74
2021/12/25 00:38:20;;;;;;;0.68;0.28;;;12.80;79.80;;;;;;10499988;28;20124;-75
2021/12/25 00:43:21;;;;;;;0.90;0.45;;;12.80;79.70;;;;;;10499285;28;20048;-74
2021/12/25 00:48:22;;;;;;;1.02;0.40;;;12.80;79.60;;;;;;10499075;28;20044;-74
2021/12/25 00:53:24;;;;;;;0.50;0.30;;;12.80;79.60;;;;;;10499390;28;20040;-74
2021/12/25 00:58:25;;;;;;;0.60;0.32;;;12.70;79.40;;;;;;10498900;28;20048;-74
2021/12/25 01:03:27;;;;;;;0.65;0.30;;;12.80;79.50;;;;;;10498882;28;20055;-75
2021/12/25 01:08:28;;;;;;;1.25;0.30;;;12.70;79.30;;;;;;10498665;28;20045;-74
2021/12/25 01:13:34;;;;;;;0.55;0.30;;;12.80;79.30;;;;;;10460299;28;1107237;-75
2021/12/25 01:24:18;;;;;;;0.88;0.40;;;12.70;79.10;;;;;;10478845;28;20547;-74
2021/12/25 01:29:30;;;;;;;1.10;0.50;;;12.70;79.00;;;;;;10500360;28;20677;-74
2021/12/25 01:40:16;;;;;;;1.33;0.40;;;12.70;78.80;;;;;;10474774;28;20048;-75
2021/12/25 01:50:36;;;;;;;0.60;0.25;;;12.70;78.70;;;;;;10499379;28;20032;-75
2021/12/25 01:55:38;;;;;;;0.40;0.20;;;12.70;78.70;;;;;;10499577;28;20055;-75
2021/12/25 02:00:39;;;;;;;0.60;0.30;;;12.70;78.60;;;;;;10498830;28;20051;-75
2021/12/25 02:05:41;;;;;;;0.95;0.25;;;12.70;78.60;;;;;;10498893;28;20485;-75
2021/12/25 02:10:42;;;;;;;0.73;0.40;;;12.60;78.40;;;;;;10498680;28;20045;-75
2021/12/25 02:15:46;;;;;;;0.52;0.30;;;12.70;78.50;;;;;;10498262;28;20429;-75
2021/12/25 02:20:53;;;;;;;1.00;0.20;;;12.70;78.30;;;;;;10497938;28;20052;-74
2021/12/25 02:25:55;;;;;;;0.60;0.30;;;12.60;78.10;;;;;;10497935;28;20416;-75
2021/12/25 02:30:56;;;;;;;1.23;0.30;;;12.60;78.10;;;;;;10498074;28;20049;-74
2021/12/25 02:35:58;;;;;;;0.50;0.20;;;12.60;77.90;;;;;;10496700;28;20067;-74
2021/12/25 02:40:59;;;;;;;0.90;0.38;;;12.60;77.90;;;;;;10497307;28;20056;-75
2021/12/25 02:46:02;;;;;;;0.60;0.20;;;12.60;77.80;;;;;;10497130;28;20056;-74
2021/12/25 02:51:03;;;;;;;0.50;0.20;;;12.60;77.80;;;;;;10497041;28;20460;-74
2021/12/25 02:56:05;;;;;;;0.40;0.20;;;12.60;77.70;;;;;;10497009;28;20517;-74
2021/12/25 03:01:06;;;;;;;0.88;0.30;;;12.60;77.70;;;;;;10496497;28;20049;-74
2021/12/25 03:06:08;;;;;;;1.45;0.28;;;12.60;77.60;;;;;;10496755;28;20048;-72
2021/12/25 03:11:09;;;;;;;0.35;0.20;;;12.60;77.60;;;;;;10496325;28;20060;-74
2021/12/25 03:16:10;;;;;;;0.57;0.20;;;12.50;77.40;;;;;;10495853;28;20049;-74
2021/12/25 03:21:12;;;;;;;0.45;0.10;;;12.60;77.50;;;;;;10495856;28;20536;-74
2021/12/25 03:26:13;;;;;;;0.65;0.20;;;12.50;77.40;;;;;;10495610;28;20390;-74
2021/12/25 03:31:17;;;;;;;0.63;0.20;;;12.60;77.40;;;;;;10495797;28;20045;-74
2021/12/25 03:36:19;;;;;;;0.35;0.20;;;12.50;77.20;;;;;;10495620;28;20052;-74
2021/12/25 03:41:20;;;;;;;0.73;0.32;;;12.50;77.10;;;;;;10495255;28;20059;-74
2021/12/25 03:46:21;;;;;;;0.35;0.20;;;12.60;77.10;;;;;;10495069;28;20047;-74
2021/12/25 04:02:07;;;;;;;0.28;0.10;;;12.50;76.90;;;;;;10494940;28;20127;-73
2021/12/25 04:07:16;;;;;;;0.65;0.30;;;12.50;76.90;;;;;;10495304;28;20059;-74
2021/12/25 04:12:18;;;;;;;0.60;0.20;;;12.50;76.90;;;;;;10495293;28;20045;-74
2021/12/25 04:17:19;;;;;;;0.57;0.30;;;12.50;76.90;;;;;;10494719;28;20045;-74
2021/12/25 04:22:27;;;;;;;0.47;0.10;;;12.50;76.80;;;;;;10494473;28;20060;-73
2021/12/25 04:27:28;;;;;;;0.77;0.25;;;12.50;76.70;;;;;;10494752;28;20049;-74
2021/12/25 04:33:06;;;;;;;0.70;0.10;;;12.50;76.80;;;;;;10494779;28;20051;-73
2021/12/25 04:49:17;;;;;;;0.70;0.20;;;12.50;76.60;;;;;;10493944;28;20029;-74
2021/12/25 05:04:56;;;;;;;0.80;0.20;;;12.50;76.60;;;;;;10501503;28;20119;-73
2021/12/25 05:09:58;;;;;;;0.30;0.15;;;12.50;76.60;;;;;;10501127;28;20500;-74
2021/12/25 05:15:00;;;;;;;0.30;0.00;;;12.40;76.50;;;;;;10500792;28;20084;-74
2021/12/25 05:20:02;;;;;;;0.77;0.20;;;12.50;76.60;;;;;;10500678;28;20059;-74
2021/12/25 05:25:03;;;;;;;0.43;0.20;;;12.50;76.50;;;;;;10500535;28;20041;-74
2021/12/25 05:30:05;;;;;;;0.50;0.20;;;12.40;76.40;;;;;;10500533;28;20040;-73
2021/12/25 05:35:06;;;;;;;0.40;0.17;;;12.50;76.40;;;;;;10500187;28;20044;-73
2021/12/25 05:40:08;;;;;;;0.65;0.10;;;12.40;76.20;;;;;;10500185;28;20052;-73
2021/12/25 05:45:10;;;;;;;0.52;0.20;;;12.50;76.30;;;;;;10500003;28;20048;-74
2021/12/25 05:50:11;;;;;;;0.28;0.13;;;12.50;76.30;;;;;;10499341;28;20048;-74
2021/12/25 05:55:13;;;;;;;0.52;0.20;;;12.40;76.20;;;;;;10499576;28;20040;-73
2021/12/25 06:00:14;;;;;;;0.32;0.10;;;12.40;76.20;;;;;;10499206;28;20056;-74
2021/12/25 06:05:16;;;;;;;0.77;0.20;;;12.40;76.20;;;;;;10499248;28;20045;-73
2021/12/25 06:10:17;;;;;;;0.20;0.10;;;12.50;76.20;;;;;;10497792;28;20044;-74
2021/12/25 06:15:20;;;;;;;0.57;0.20;;;12.40;76.20;;;;;;10498538;28;20084;-74
2021/12/25 06:20:21;;;;;;;0.68;0.20;;;12.40;76.20;;;;;;10498166;28;20064;-73
2021/12/25 06:25:23;;;;;;;0.20;0.10;;;12.40;76.10;;;;;;10497923;28;20049;-74
2021/12/25 06:30:24;;;;;;;0.20;0.10;;;12.40;76.10;;;;;;10498099;28;20041;-74
2021/12/25 06:35:26;;;;;;;0.73;0.40;;;12.40;76.10;;;;;;10497678;28;20048;-73
2021/12/25 06:40:27;;;;;;;0.40;0.20;;;12.40;76.00;;;;;;10497890;28;20425;-74
2021/12/25 06:45:29;;;;;;;0.60;0.20;;;12.40;76.00;;;;;;10497358;28;20509;-74
2021/12/25 06:50:30;;;;;;;0.43;0.22;;;12.40;75.90;;;;;;10496916;28;20041;-74
2021/12/25 06:55:31;;;;;;;0.60;0.20;;;12.40;75.90;;;;;;10497138;28;20524;-74
2021/12/25 07:00:33;;;;;;;0.52;0.17;;;12.40;75.80;;;;;;10496727;28;20048;-74
2021/12/25 07:05:34;;;;;;;0.30;0.20;;;12.40;75.90;;;;;;10496554;28;20531;-74
2021/12/25 07:10:36;;;;;;;0.30;0.30;;;12.40;75.80;;;;;;10496273;28;20493;-74
2021/12/25 07:15:37;;;;;;;0.30;0.20;;;12.40;75.70;;;;;;10495958;28;20059;-74
2021/12/25 07:20:39;;;;;;;0.60;0.20;;;12.40;75.70;;;;;;10495360;28;20059;-74
2021/12/25 07:25:40;;;;;;;0.88;0.20;;;12.40;75.60;;;;;;10495701;28;20044;-74
2021/12/25 07:30:42;;;;;;;0.82;0.40;;;12.40;75.70;;;;;;10496006;28;20052;-73
2021/12/25 07:35:43;;;;;;;0.57;0.30;;;12.40;75.50;;;;;;10496256;28;20060;-74
2021/12/25 07:40:45;;;;;;;0.40;0.30;;;12.40;75.60;;;;;;10495445;28;20052;-75
2021/12/25 07:45:48;;;;;;;0.40;0.20;;;12.40;75.50;;;;;;10495592;28;20048;-74
2021/12/25 07:50:49;;;;;;;0.80;0.20;;;12.40;75.40;;;;;;10494844;28;20120;-74
2021/12/25 07:55:51;;;;;;;0.40;0.20;;;12.40;75.40;;;;;;10495368;28;20041;-74
2021/12/25 08:00:53;;;;;;;0.85;0.32;;;12.30;75.20;;;;;;10494748;28;20063;-74
2021/12/25 08:05:57;;;;;;;0.40;0.20;;;12.40;75.30;;;;;;10495042;28;20444;-74
2021/12/25 08:10:58;;;;;;;1.10;0.20;;;12.40;75.20;;;;;;10494700;28;20095;-74
2021/12/25 08:15:59;;;;;;;0.47;0.20;;;12.40;75.20;;;;;;10494229;28;20417;-74
2021/12/25 08:21:04;;;;;;;0.68;0.30;;;12.40;75.20;;;;;;10494533;28;20045;-74
2021/12/25 08:26:05;;;;;;;0.60;0.20;;;12.40;75.10;;;;;;10494444;28;20131;-74
2021/12/25 08:31:07;;;;;;;0.63;0.17;;;12.50;75.20;;;;;;10495430;28;20041;-74
2021/12/25 08:36:08;;;;;;;0.40;0.20;;;12.50;74.90;;;;;;10502508;28;20674;-75
2021/12/25 08:41:10;;;;;;;0.50;0.30;;;12.70;74.80;;;;;;10502012;28;20055;-75
2021/12/25 08:46:15;;;;;;;0.73;0.28;;;12.80;74.60;;;;;;10502000;28;20052;-74
2021/12/25 08:51:17;;;;;;;0.83;0.40;;;13.00;74.40;;;;;;10501990;28;20056;-74
2021/12/25 08:56:18;;;;;;;0.85;0.40;;;13.10;74.30;;;;;;10501969;28;20056;-75
2021/12/25 09:01:20;;;;;;;0.63;0.30;;;13.30;74.00;;;;;;10501083;28;20110;-73
2021/12/25 09:06:21;;;;;;;0.50;0.30;;;13.40;74.00;;;;;;10501661;28;20049;-75
2021/12/25 09:11:24;;;;;;;0.40;0.22;;;13.50;73.70;;;;;;10501341;28;20106;-75
2021/12/25 09:16:25;;;;;;;0.40;0.17;;;13.60;73.50;;;;;;10500412;28;20417;-74
2021/12/25 09:21:27;;;;;;;0.57;0.30;;;13.60;73.40;;;;;;10500715;28;20090;-74
2021/12/25 09:26:28;;;;;;;0.50;0.32;;;13.70;73.50;;;;;;10500505;28;20041;-75
2021/12/25 09:31:30;;;;;;;0.50;0.22;;;13.70;73.30;;;;;;10500773;28;20097;-75
2021/12/25 09:36:32;;;;;;;0.70;0.28;;;13.80;73.30;;;;;;10500333;28;20044;-74
2021/12/25 09:41:33;;;;;;;0.55;0.30;;;13.70;73.20;;;;;;10499695;28;20546;-75
2021/12/25 09:46:35;;;;;;;0.22;0.17;;;13.70;73.10;;;;;;10499276;28;20080;-75
2021/12/25 09:51:36;;;;;;;0.77;0.28;;;13.70;73.40;;;;;;10499436;28;20049;-75
2021/12/25 09:56:38;;;;;;;0.77;0.35;;;13.70;73.20;;;;;;10499380;28;20048;-75
2021/12/25 10:01:39;;;;;;;0.77;0.43;;;13.60;73.30;;;;;;10499087;28;20554;-74
2021/12/25 10:06:41;;;;;;;0.77;0.20;;;13.60;73.20;;;;;;10498937;28;20099;-74
2021/12/25 10:11:42;;;;;;;0.52;0.20;;;13.60;73.40;;;;;;10498688;28;20048;-74
2021/12/25 10:16:44;;;;;;;0.70;0.40;;;13.50;73.30;;;;;;10498194;28;20119;-74
2021/12/25 10:21:45;;;;;;;0.60;0.40;;;13.50;73.40;;;;;;10498882;28;20101;-74
2021/12/25 10:26:47;;;;;;;0.93;0.40;;;13.50;73.40;;;;;;10498470;28;20489;-75
2021/12/25 10:31:48;;;;;;;0.40;0.20;;;13.50;73.40;;;;;;10498798;28;20489;-75
2021/12/25 10:36:50;;;;;;;0.68;0.30;;;13.40;73.40;;;;;;10498197;28;20041;-74
2021/12/25 10:41:52;;;;;;;0.47;0.30;;;13.40;73.40;;;;;;10497420;28;20052;-74
2021/12/25 10:46:53;;;;;;;0.55;0.30;;;13.40;73.50;;;;;;10497351;28;20052;-74
2021/12/25 10:51:55;;;;;;;0.80;0.22;;;13.30;73.30;;;;;;10497304;28;20053;-74
2021/12/25 10:56:57;;;;;;;0.50;0.40;;;13.30;73.50;;;;;;10496877;28;20048;-75
2021/12/25 11:01:58;;;;;;;0.57;0.40;;;13.30;73.50;;;;;;10496777;28;20117;-74
2021/12/25 11:07:00;;;;;;;1.27;0.40;;;13.30;73.60;;;;;;10496620;28;20045;-73
2021/12/25 11:12:01;;;;;;;0.73;0.40;;;13.20;73.60;;;;;;10496543;28;20049;-74
2021/12/25 11:17:05;;;;;;;0.80;0.40;;;13.20;73.60;;;;;;10495666;28;20052;-74
2021/12/25 11:22:07;;;;;;;1.27;0.43;;;13.20;73.80;;;;;;10496398;28;20044;-74
2021/12/25 11:27:08;;;;;;;1.23;0.40;;;13.20;73.60;;;;;;10496120;28;20604;-74
2021/12/25 11:32:11;;;;;;;0.50;0.32;;;13.20;73.80;;;;;;10495809;28;20507;-75
2021/12/25 11:37:14;;;;;;;1.02;0.40;;;13.20;73.90;;;;;;10495952;28;20054;-74
2021/12/25 11:42:15;;;;;;;0.73;0.50;;;13.20;73.90;;;;;;10495601;28;20082;-74
2021/12/25 11:47:17;;;;;;;1.83;0.50;;;13.20;73.90;;;;;;10495655;28;20051;-74
2021/12/25 11:52:19;;;;;;;0.98;0.47;;;13.20;73.70;;;;;;10495300;28;20045;-75
2021/12/25 11:57:46;;;;;;;1.23;0.47;;;13.10;73.80;;;;;;10495607;28;20041;-74
2021/12/25 12:02:47;;;;;;;1.13;0.30;;;13.10;73.90;;;;;;10495355;28;20053;-75
2021/12/25 12:07:48;;;;;;;0.52;0.30;;;13.10;73.90;;;;;;10500154;28;20044;-75
2021/12/25 12:12:50;;;;;;;1.45;0.50;;;13.10;73.90;;;;;;10503403;28;20056;-74
2021/12/25 12:17:54;;;;;;;1.45;0.50;;;13.10;73.90;;;;;;10503035;28;20447;-74
2021/12/25 12:23:18;;;;;;;0.50;0.30;;;13.10;74.00;;;;;;10502818;28;20455;-73
2021/12/25 12:28:19;;;;;;;0.70;0.30;;;13.00;73.90;;;;;;10503141;28;20086;-74
2021/12/25 12:33:21;;;;;;;1.20;0.55;;;13.00;73.90;;;;;;10502641;28;20489;-74
2021/12/25 12:38:22;;;;;;;1.02;0.40;;;13.00;74.00;;;;;;10502526;28;20044;-75
2021/12/25 12:43:24;;;;;;;0.50;0.30;;;13.00;73.90;;;;;;10502403;28;20055;-74
2021/12/25 12:48:25;;;;;;;0.57;0.43;;;13.00;74.00;;;;;;10501828;28;20044;-73
2021/12/25 12:53:27;;;;;;;0.75;0.25;;;13.00;73.90;;;;;;10501980;28;20401;-74
2021/12/25 12:58:28;;;;;;;0.60;0.22;;;13.10;74.00;;;;;;10501588;28;20405;-74
2021/12/25 13:03:30;;;;;;;0.70;0.30;;;13.10;74.10;;;;;;10501626;28;20547;-74
2021/12/25 13:08:32;;;;;;;1.48;0.50;;;13.10;74.20;;;;;;10501421;28;20040;-74
2021/12/25 13:13:37;;;;;;;1.52;0.70;;;13.10;74.10;;;;;;10500906;28;20076;-74
2021/12/25 13:18:38;;;;;;;0.60;0.43;;;13.20;74.20;;;;;;10500013;28;20165;-74
2021/12/25 13:23:42;;;;;;;1.33;0.50;;;13.20;74.20;;;;;;10500842;28;20492;-75
2021/12/25 13:28:44;;;;;;;0.68;0.40;;;13.20;74.30;;;;;;10501001;28;20053;-75
2021/12/25 13:33:45;;;;;;;0.55;0.35;;;13.20;74.40;;;;;;10500170;28;20106;-75
2021/12/25 13:38:47;;;;;;;0.65;0.40;;;13.20;74.30;;;;;;10500014;28;20045;-75
2021/12/25 13:43:48;;;;;;;1.13;0.50;;;13.30;74.30;;;;;;10500204;28;20044;-75
2021/12/25 13:48:50;;;;;;;0.60;0.40;;;13.30;74.30;;;;;;10499598;28;20045;-75
2021/12/25 13:53:51;;;;;;;0.98;0.38;;;13.20;74.40;;;;;;10499943;28;20055;-75
2021/12/25 13:58:53;;;;;;;1.33;0.50;;;13.20;74.30;;;;;;10499417;28;20478;-75
2021/12/25 14:03:54;;;;;;;1.40;0.60;;;13.20;74.40;;;;;;10499006;28;20440;-74
2021/12/25 14:08:56;;;;;;;0.63;0.30;;;13.20;74.50;;;;;;10498901;28;20413;-74
2021/12/25 14:13:57;;;;;;;1.20;0.43;;;13.10;74.30;;;;;;10498524;28;20052;-73
2021/12/25 14:18:59;;;;;;;0.70;0.30;;;13.10;74.40;;;;;;10498609;28;20055;-75
2021/12/25 14:24:00;;;;;;;0.57;0.40;;;13.10;74.30;;;;;;10498495;28;20056;-74
2021/12/25 14:29:02;;;;;;;0.52;0.40;;;13.00;74.80;;;;;;10497212;28;20048;-75
2021/12/25 14:34:03;;;;;;;0.75;0.30;;;13.00;74.20;;;;;;10498135;28;20045;-74
2021/12/25 14:39:05;;;;;;;0.77;0.45;;;13.00;74.20;;;;;;10497704;28;20049;-74
2021/12/25 14:44:06;;;;;;;1.17;0.50;;;12.90;74.20;;;;;;10497691;28;20056;-74
2021/12/25 14:49:08;;;;;;;0.93;0.47;;;12.90;74.20;;;;;;10497141;28;20052;-74
2021/12/25 14:54:09;;;;;;;0.80;0.40;;;12.90;74.20;;;;;;10497066;28;20453;-74
2021/12/25 14:59:11;;;;;;;0.75;0.40;;;12.90;74.10;;;;;;10497065;28;20045;-74
2021/12/25 15:04:12;;;;;;;0.80;0.35;;;12.90;74.10;;;;;;10496711;28;20044;-75
2021/12/25 15:09:14;;;;;;;0.70;0.40;;;12.80;74.10;;;;;;10496650;28;20048;-74
2021/12/25 15:14:15;;;;;;;1.10;0.40;;;12.80;74.00;;;;;;10496175;28;20044;-75
2021/12/25 15:19:17;;;;;;;0.65;0.40;;;12.80;74.10;;;;;;10496345;28;20060;-75
2021/12/25 15:24:18;;;;;;;0.50;0.40;;;12.80;74.00;;;;;;10496092;28;20045;-74
2021/12/25 15:29:20;;;;;;;0.63;0.40;;;12.80;74.10;;;;;;10496005;28;20041;-74
2021/12/25 15:34:21;;;;;;;0.60;0.47;;;12.80;74.00;;;;;;10495946;28;20485;-75
2021/12/25 15:39:23;;;;;;;1.00;0.47;;;12.80;74.00;;;;;;10495601;28;20044;-75
2021/12/25 15:44:25;;;;;;;1.00;0.30;;;12.70;73.90;;;;;;10495367;28;20052;-75
2021/12/25 15:49:26;;;;;;;0.80;0.40;;;12.80;74.00;;;;;;10495076;28;20055;-75
2021/12/25 15:54:28;;;;;;;0.68;0.38;;;12.70;73.90;;;;;;10495309;28;20056;-75
2021/12/25 15:59:29;;;;;;;0.88;0.35;;;12.70;73.90;;;;;;10494878;28;20520;-75
2021/12/25 16:04:32;;;;;;;0.60;0.30;;;12.70;73.90;;;;;;10494949;28;20053;-74
2021/12/25 16:09:34;;;;;;;0.80;0.40;;;12.70;73.90;;;;;;10495184;28;20049;-75
2021/12/25 16:14:35;;;;;;;1.35;0.50;;;12.70;73.90;;;;;;10494629;28;20060;-74
2021/12/25 16:19:37;;;;;;;0.82;0.50;;;12.70;73.80;;;;;;10494946;28;20040;-75
2021/12/25 16:24:38;;;;;;;1.05;0.70;;;12.70;73.80;;;;;;10494826;28;20048;-75
2021/12/25 16:29:40;;;;;;;0.50;0.40;;;12.70;73.80;;;;;;10494396;28;20500;-75
2021/12/25 16:34:44;;;;;;;1.17;0.50;;;12.70;73.80;;;;;;10494414;28;20512;-75
2021/12/25 16:39:45;;;;;;;1.08;0.47;;;12.70;73.70;;;;;;10494560;28;20083;-75
2021/12/25 16:44:47;;;;;;;1.40;0.50;;;12.70;73.80;;;;;;10494108;28;20517;-76
2021/12/25 16:49:48;;;;;;;1.15;0.50;;;12.70;73.70;;;;;;10493875;28;20049;-76
2021/12/25 16:54:50;;;;;;;0.85;0.43;;;12.70;73.70;;;;;;10498754;28;20485;-75
2021/12/25 16:59:51;;;;;;;0.70;0.40;;;12.70;73.70;;;;;;10501642;28;20071;-75
2021/12/25 17:04:53;;;;;;;0.60;0.40;;;12.70;73.60;;;;;;10501326;28;20053;-75
2021/12/25 17:09:54;;;;;;;1.08;0.50;;;12.70;73.60;;;;;;10501233;28;20479;-75
2021/12/25 17:14:57;;;;;;;1.38;0.40;;;12.70;73.60;;;;;;10500956;28;20528;-75
2021/12/25 17:19:59;;;;;;;0.68;0.45;;;12.70;73.50;;;;;;10501004;28;20072;-75
2021/12/25 17:25:00;;;;;;;0.63;0.40;;;12.70;73.40;;;;;;10500644;28;20551;-75
2021/12/25 17:30:01;;;;;;;1.50;0.60;;;12.70;73.50;;;;;;10500637;28;20508;-75
2021/12/25 17:35:03;;;;;;;1.23;0.50;;;12.70;73.40;;;;;;10500516;28;20044;-75
2021/12/25 17:40:04;;;;;;;1.23;0.75;;;12.70;73.40;;;;;;10500291;28;20040;-75
2021/12/25 17:45:06;;;;;;;1.38;0.73;;;12.70;73.40;;;;;;10500212;28;20053;-75
2021/12/25 17:50:07;;;;;;;1.88;0.90;;;12.70;73.30;;;;;;10499685;28;20044;-75
2021/12/25 17:55:09;;;;;;;1.55;0.77;;;12.70;73.30;;;;;;10499479;28;20055;-74
2021/12/25 18:00:10;;;;;;;1.55;0.60;;;12.70;73.30;;;;;;10499692;28;20044;-75
2021/12/25 18:05:12;;;;;;;1.10;0.63;;;12.70;73.30;;;;;;10499204;28;20048;-75
2021/12/25 18:10:13;;;;;;;1.80;0.68;;;12.60;73.20;;;;;;10499196;28;20047;-75
2021/12/25 18:15:15;;;;;;;1.33;0.80;;;12.70;73.30;;;;;;10499091;28;20052;-75
2021/12/25 18:20:16;;;;;;;0.80;0.63;;;12.60;73.20;;;;;;10498341;28;20048;-74
2021/12/25 18:25:18;;;;;;;1.00;0.70;;;12.60;73.10;;;;;;10498445;28;20049;-74
2021/12/25 18:30:19;;;;;;;1.48;0.73;;;12.60;73.10;;;;;;10498515;28;20045;-75
2021/12/25 18:35:21;;;;;;;1.10;0.70;;;12.60;73.00;;;;;;10498071;28;20051;-75
2021/12/25 18:40:22;;;;;;;1.73;1.00;;;12.60;73.10;;;;;;10497619;28;20489;-75
2021/12/25 18:45:24;;;;;;;1.40;0.70;;;12.60;72.90;;;;;;10497686;28;20056;-75
2021/12/25 18:50:25;;;;;;;0.93;0.70;;;12.60;73.00;;;;;;10497244;28;20053;-74
2021/12/25 18:55:27;;;;;;;1.10;0.77;;;12.60;72.90;;;;;;10497084;28;20045;-75
2021/12/25 19:00:28;;;;;;;1.40;0.90;;;12.60;72.90;;;;;;10496904;28;20599;-75
2021/12/25 19:05:30;;;;;;;1.17;0.90;;;12.60;72.90;;;;;;10496659;28;20075;-75
2021/12/25 19:10:31;;;;;;;0.95;0.70;;;12.60;72.90;;;;;;10496314;28;20409;-75
2021/12/25 19:15:33;;;;;;;1.45;0.80;;;12.60;72.90;;;;;;10495585;28;20493;-75
2021/12/25 19:20:34;;;;;;;1.40;0.90;;;12.60;72.90;;;;;;10495856;28;20052;-75
2021/12/25 19:25:36;;;;;;;1.00;0.80;;;12.60;72.90;;;;;;10495873;28;20049;-75
2021/12/25 19:30:40;;;;;;;1.67;1.00;;;12.60;72.90;;;;;;10495756;28;20052;-75
2021/12/25 19:35:41;;;;;;;1.20;0.80;;;12.60;72.90;;;;;;10496009;28;20044;-75
2021/12/25 19:40:43;;;;;;;1.77;1.15;;;12.60;72.90;;;;;;10495744;28;20053;-75
2021/12/25 19:45:46;;;;;;;1.15;0.82;;;12.60;72.90;;;;;;10495360;28;20059;-76
2021/12/25 19:50:47;;;;;;;1.40;0.90;;;12.60;72.90;;;;;;10495331;28;20439;-75
2021/12/25 19:55:49;;;;;;;1.75;1.05;;;12.60;72.90;;;;;;10495197;28;20040;-76
2021/12/25 20:00:50;;;;;;;1.23;0.90;;;12.60;72.80;;;;;;10494815;28;20062;-75
2021/12/25 20:05:52;;;;;;;1.52;1.13;;;12.60;72.90;;;;;;10495089;28;20059;-75
2021/12/25 20:10:53;;;;;;;1.98;0.90;;;12.50;72.70;;;;;;10494721;28;20498;-75
2021/12/25 20:15:55;;;;;;;0.80;0.60;;;12.60;72.80;;;;;;10494670;28;20408;-75
2021/12/25 20:20:56;;;;;;;1.75;1.17;;;12.50;72.60;;;;;;10494430;28;20049;-75
2021/12/25 20:25:58;;;;;;;1.10;1.00;;;12.60;72.70;;;;;;10494696;28;20048;-75
2021/12/25 20:30:59;;;;;;;1.58;1.20;;;12.50;72.60;;;;;;10501444;28;20053;-75
2021/12/25 20:36:01;;;;;;;1.52;1.00;;;12.50;72.60;;;;;;10502995;28;20055;-75
2021/12/25 20:41:02;;;;;;;1.80;1.17;;;12.50;72.60;;;;;;10502681;28;20056;-75
2021/12/25 20:46:04;;;;;;;1.50;1.00;;;12.50;72.60;;;;;;10502026;28;20486;-74
2021/12/25 20:51:05;;;;;;;1.60;1.20;;;12.50;72.60;;;;;;10502300;28;20044;-75
2021/12/25 20:56:07;;;;;;;2.00;1.05;;;12.50;72.50;;;;;;10501988;28;20566;-74
2021/12/25 21:01:08;;;;;;;1.60;1.17;;;12.50;72.50;;;;;;10501478;28;20052;-74
2021/12/25 21:06:10;;;;;;;2.10;1.40;;;12.50;72.50;;;;;;10501480;28;20052;-75
2021/12/25 21:11:11;;;;;;;1.60;1.10;;;12.50;72.50;;;;;;10501889;28;20044;-75
2021/12/25 21:16:13;;;;;;;1.80;1.20;;;12.50;72.50;;;;;;10500899;28;20063;-75
2021/12/25 21:21:14;;;;;;;2.10;1.25;;;12.50;72.50;;;;;;10500789;28;20040;-75
2021/12/25 21:26:16;;;;;;;1.95;1.20;;;12.50;72.50;;;;;;10500638;28;20056;-75
2021/12/25 21:31:18;;;;;;;1.77;1.50;;;12.50;72.40;;;;;;10500481;28;20127;-74
2021/12/25 21:36:19;;;;;;;2.22;1.30;;;12.50;72.40;;;;;;10500482;28;20123;-74
2021/12/25 21:41:21;;;;;;;1.73;1.30;;;12.50;72.40;;;;;;10499510;28;20509;-75
2021/12/25 21:46:22;;;;;;;2.20;1.40;;;12.40;72.30;;;;;;10499716;28;20079;-75
2021/12/25 21:51:23;;;;;;;1.90;1.38;;;12.40;72.90;;;;;;10499945;28;20040;-76
2021/12/25 21:56:25;;;;;;;1.60;1.20;;;12.50;72.40;;;;;;10499482;28;20045;-75
2021/12/25 22:01:27;;;;;;;1.95;1.35;;;12.40;72.30;;;;;;10499528;28;20051;-75
2021/12/25 22:06:28;;;;;;;1.63;1.35;;;12.50;72.30;;;;;;10499181;28;20391;-76
2021/12/25 22:11:30;;;;;;;1.40;1.30;;;12.40;72.20;;;;;;10498941;28;20049;-75
2021/12/25 22:16:31;;;;;;;2.15;1.35;;;12.40;72.20;;;;;;10498237;28;20490;-75
2021/12/25 22:21:32;;;;;;;1.98;1.50;;;12.40;72.80;;;;;;10498502;28;20493;-75
2021/12/25 22:26:34;;;;;;;2.00;1.30;;;12.40;72.20;;;;;;10498447;28;20094;-75
2021/12/25 22:31:35;;;;;;;1.65;1.20;;;12.40;72.10;;;;;;10498378;28;20418;-76
2021/12/25 22:36:37;;;;;;;2.75;1.80;;;12.40;72.10;;;;;;10497796;28;20505;-75
2021/12/25 22:41:38;;;;;;;2.33;1.73;;;12.40;72.00;;;;;;10497941;28;20507;-76
2021/12/25 22:46:40;;;;;;;2.20;1.60;;;12.40;72.10;;;;;;10497200;28;20390;-75
2021/12/25 22:51:41;;;;;;;2.03;1.65;;;12.40;72.00;;;;;;10496522;28;20390;-76
2021/12/25 22:56:44;;;;;;;2.33;1.80;;;12.40;72.00;;;;;;10497091;28;20044;-76
2021/12/25 23:01:47;;;;;;;2.92;1.73;;;12.40;72.00;;;;;;10497062;28;20048;-76
2021/12/25 23:06:49;;;;;;;1.88;1.40;;;12.40;71.90;;;;;;10496689;28;20114;-75
2021/12/25 23:11:50;;;;;;;1.83;1.38;;;12.40;71.90;;;;;;10496443;28;20409;-75
2021/12/25 23:16:52;;;;;;;3.10;1.88;;;12.40;72.00;;;;;;10496061;28;20523;-76
2021/12/25 23:21:53;;;;;;;2.42;1.67;;;12.40;71.90;;;;;;10496167;28;20427;-76
2021/12/25 23:26:55;;;;;;;2.08;1.58;;;12.40;71.90;;;;;;10495844;28;20405;-75
2021/12/25 23:31:56;;;;;;;2.53;1.70;;;12.40;71.90;;;;;;10496057;28;20436;-75
2021/12/25 23:36:58;;;;;;;2.70;1.85;;;12.30;71.80;;;;;;10495863;28;20048;-76
2021/12/25 23:42:01;;;;;;;2.50;1.80;;;12.40;71.90;;;;;;10495823;28;20489;-75
2021/12/25 23:47:03;;;;;;;2.70;1.95;;;12.30;71.70;;;;;;10495074;28;20052;-75
2021/12/25 23:52:04;;;;;;;2.65;1.92;;;12.40;71.80;;;;;;10495763;28;20049;-75
2021/12/25 23:57:06;;;;;;;2.83;1.80;;;12.40;71.80;;;;;;10495179;28;20044;-75
